Terminal Aerodrome Forecast
Issued by NWS

Current Version | Previous Version | Text Only | Print | Product List | Glossary Off
Versions: 1 2 3 4 5 6 7 8 9 10 11 12 13 14 15 16 17 18 19 20 21

000
FTUS41 KPBZ 171842 AAA
TAFMGW
TAF AMD
KMGW 171842Z 1719/1818 21006KT 4SM -RA OVC015 WS020/23035KT
     FM180000 24011KT P6SM OVC025 PROB30 1808/1812 4SM -RA OVC015=

USA.gov is the U.S. government's official web portal to all federal, state and local government web resources and services.